createdAt,value
2019-01-06T00:01:49.033Z,3.00
2019-01-06T00:04:35.946Z,2.50
2019-01-06T00:07:29.925Z,1.80
2019-01-06T00:10:27.213Z,1.90
2019-01-06T00:13:07.018Z,2.55
2019-01-06T00:16:04.057Z,2.00
2019-01-06T00:19:01.342Z,1.80
2019-01-06T00:21:48.585Z,2.37
2019-01-06T00:24:49.083Z,2.57
2019-01-06T00:27:40.024Z,1.47
2019-01-06T00:30:28.251Z,2.12
2019-01-06T00:33:15.043Z,1.30
2019-01-06T00:36:15.593Z,1.33
2019-01-06T00:39:09.735Z,1.60
2019-01-06T00:42:10.318Z,2.27
2019-01-06T00:45:07.241Z,1.27
2019-01-06T00:47:58.661Z,1.33
2019-01-06T00:50:59.208Z,3.70
2019-01-06T00:54:02.112Z,1.77
2019-01-06T00:56:43.116Z,2.37
2019-01-06T00:59:26.566Z,2.22
2019-01-06T01:02:13.567Z,1.77
2019-01-06T01:05:19.567Z,3.47
2019-01-06T01:08:07.481Z,1.23
2019-01-06T01:10:51.517Z,1.70
2019-01-06T01:13:38.548Z,1.60
2019-01-06T01:16:44.757Z,1.95
2019-01-06T01:19:47.756Z,1.97
2019-01-06T01:22:34.501Z,1.17
2019-01-06T01:25:23.899Z,1.00
2019-01-06T01:28:10.766Z,1.37
2019-01-06T01:30:59.127Z,1.05
2019-01-06T01:33:39.363Z,1.10
2019-01-06T01:36:37.535Z,1.02
2019-01-06T01:39:31.804Z,1.63
2019-01-06T01:42:26.766Z,1.73
2019-01-06T01:45:15.379Z,1.50
2019-01-06T01:47:58.971Z,1.50
2019-01-06T01:50:45.988Z,1.20
2019-01-06T01:53:38.730Z,3.40
2019-01-06T01:56:32.716Z,1.73
2019-01-06T01:59:18.745Z,2.20
2019-01-06T02:02:16.067Z,1.37
2019-01-06T02:05:03.055Z,1.17
2019-01-06T02:08:03.448Z,2.05
2019-01-06T02:10:45.338Z,2.02
2019-01-06T02:13:42.299Z,2.90
2019-01-06T02:16:28.995Z,1.30
2019-01-06T02:19:35.580Z,2.33
2019-01-06T02:22:26.872Z,1.83
2019-01-06T02:25:32.490Z,1.33
2019-01-06T02:28:32.842Z,1.55
2019-01-06T02:31:20.115Z,1.80
2019-01-06T02:34:23.124Z,1.80
2019-01-06T02:37:09.799Z,2.00
2019-01-06T02:40:00.640Z,1.60
2019-01-06T02:42:45.714Z,2.87
2019-01-06T02:45:31.878Z,2.73
2019-01-06T02:48:24.480Z,1.80
2019-01-06T02:51:24.695Z,2.20
2019-01-06T02:54:11.639Z,1.83
2019-01-06T02:57:05.698Z,1.67
2019-01-06T02:59:59.781Z,1.60
2019-01-06T03:03:02.510Z,2.00
2019-01-06T03:05:59.472Z,2.97
2019-01-06T03:08:46.380Z,2.33
2019-01-06T03:11:32.944Z,1.63
2019-01-06T03:14:23.970Z,1.33
2019-01-06T03:17:28.337Z,2.87
2019-01-06T03:20:23.594Z,3.00
2019-01-06T03:23:17.974Z,2.60
2019-01-06T03:26:09.332Z,2.13
2019-01-06T03:28:55.952Z,3.40
2019-01-06T03:31:38.263Z,1.87
2019-01-06T03:34:26.301Z,1.73
2019-01-06T03:37:21.139Z,1.60
2019-01-06T03:40:09.453Z,2.70
2019-01-06T03:43:03.383Z,2.55
2019-01-06T03:45:49.806Z,1.95
2019-01-06T03:48:36.868Z,2.00
2019-01-06T03:51:23.401Z,2.80
2019-01-06T03:54:11.713Z,2.80
2019-01-06T03:56:58.295Z,2.12
2019-01-06T03:59:40.945Z,2.17
2019-01-06T04:02:36.283Z,2.40
2019-01-06T04:05:23.053Z,2.20
2019-01-06T04:08:10.374Z,2.20
2019-01-06T04:10:58.755Z,1.60
2019-01-06T04:13:47.097Z,2.80
2019-01-06T04:16:33.718Z,3.57
2019-01-06T04:19:37.355Z,2.08
2019-01-06T04:22:34.123Z,1.72
2019-01-06T04:25:14.050Z,2.80
2019-01-06T04:28:17.329Z,1.37
2019-01-06T04:31:10.773Z,1.45
2019-01-06T04:33:57.253Z,4.62
2019-01-06T04:36:43.791Z,1.45
2019-01-06T04:39:35.029Z,1.10
2019-01-06T04:42:21.629Z,1.62
2019-01-06T04:45:15.490Z,0.90
2019-01-06T04:48:03.442Z,1.35
2019-01-06T04:50:50.243Z,0.98
2019-01-06T04:53:41.665Z,2.10
2019-01-06T04:56:28.303Z,1.37
2019-01-06T04:59:15.049Z,2.37
2019-01-06T05:02:12.238Z,1.65
2019-01-06T05:05:18.207Z,1.30
2019-01-06T05:08:15.583Z,1.60
2019-01-06T05:11:03.622Z,1.30
2019-01-06T05:13:50.150Z,1.57
2019-01-06T05:16:37.477Z,1.27
2019-01-06T05:19:29.391Z,1.70
2019-01-06T05:22:10.631Z,2.62
2019-01-06T05:24:57.390Z,2.17
2019-01-06T05:27:48.714Z,1.27
2019-01-06T05:30:35.508Z,1.65
2019-01-06T05:33:21.400Z,2.00
2019-01-06T05:36:16.579Z,1.07
2019-01-06T05:39:02.605Z,2.72
2019-01-06T05:41:49.613Z,2.95
2019-01-06T05:44:34.963Z,1.73
2019-01-06T05:47:38.224Z,3.00
2019-01-06T05:50:26.213Z,1.77
2019-01-06T05:53:29.190Z,1.80
2019-01-06T05:56:11.870Z,1.67
2019-01-06T05:59:00.194Z,1.40
2019-01-06T06:01:57.246Z,2.57
2019-01-06T06:04:48.079Z,1.20
2019-01-06T06:07:48.231Z,1.00
2019-01-06T06:10:35.187Z,1.30
2019-01-06T06:13:20.599Z,2.50
2019-01-06T06:16:24.004Z,1.43
2019-01-06T06:19:06.584Z,2.10
2019-01-06T06:21:53.267Z,2.07
2019-01-06T06:24:39.900Z,1.27
2019-01-06T06:27:31.241Z,1.07
2019-01-06T06:30:17.981Z,1.07
2019-01-06T06:33:15.679Z,1.10
2019-01-06T06:36:02.067Z,0.90
2019-01-06T06:38:42.258Z,1.10
2019-01-06T06:41:30.651Z,0.90
2019-01-06T06:44:25.777Z,0.80
2019-01-06T06:47:19.348Z,1.07
2019-01-06T06:50:20.082Z,1.73
2019-01-06T06:53:09.403Z,1.80
2019-01-06T06:56:01.515Z,1.42
2019-01-06T06:58:58.503Z,1.98
2019-01-06T07:02:36.646Z,2.57
2019-01-06T07:05:23.586Z,2.12
2019-01-06T07:08:03.324Z,1.10
2019-01-06T07:10:50.412Z,1.77
2019-01-06T07:13:29.050Z,1.17
2019-01-06T07:16:17.324Z,1.77
2019-01-06T07:19:03.920Z,3.67
2019-01-06T07:21:58.591Z,1.43
2019-01-06T07:24:45.318Z,1.42
2019-01-06T07:27:33.266Z,1.95
2019-01-06T07:30:40.247Z,1.80
2019-01-06T07:33:21.463Z,1.47
2019-01-06T07:36:21.808Z,1.60
2019-01-06T07:39:09.603Z,1.53
2019-01-06T07:42:23.787Z,1.90
2019-01-06T07:45:12.081Z,1.62
2019-01-06T07:48:04.878Z,0.70
2019-01-06T07:51:02.362Z,1.90
2019-01-06T07:53:44.386Z,1.33
2019-01-06T07:56:31.148Z,1.90
2019-01-06T07:59:13.778Z,2.20
2019-01-06T08:02:07.604Z,1.15
2019-01-06T08:04:55.887Z,1.92
2019-01-06T08:07:42.630Z,1.60
2019-01-06T08:10:33.138Z,2.12
2019-01-06T08:13:16.544Z,1.33
2019-01-06T08:16:03.618Z,1.90
2019-01-06T08:18:49.574Z,2.23
2019-01-06T08:21:40.096Z,1.63
2019-01-06T08:24:34.594Z,2.10
2019-01-06T08:27:29.472Z,2.90
2019-01-06T08:30:19.270Z,1.63
2019-01-06T08:33:25.477Z,1.60
2019-01-06T08:36:13.871Z,2.23
2019-01-06T08:39:00.435Z,2.37
2019-01-06T08:41:47.416Z,2.00
2019-01-06T08:44:34.522Z,1.70
2019-01-06T08:47:40.390Z,1.43
2019-01-06T08:50:35.925Z,2.60
2019-01-06T08:53:37.015Z,2.60
2019-01-06T08:56:42.394Z,2.27
2019-01-06T08:59:34.427Z,1.73
2019-01-06T09:02:28.567Z,1.40
2019-01-06T09:08:41.375Z,2.60
2019-01-06T09:11:38.216Z,1.37
2019-01-06T09:14:30.929Z,1.50
2019-01-06T09:18:15.778Z,1.87
2019-01-06T09:21:19.183Z,3.40
2019-01-06T09:24:07.363Z,2.72
2019-01-06T09:27:31.086Z,1.20
2019-01-06T09:30:55.738Z,2.17
2019-01-06T09:33:42.647Z,3.07
2019-01-06T09:36:29.336Z,1.87
2019-01-06T09:39:33.498Z,2.30
2019-01-06T09:42:30.769Z,1.30
2019-01-06T09:45:16.827Z,1.50
2019-01-06T09:48:05.242Z,1.82
2019-01-06T09:50:49.590Z,2.03
2019-01-06T09:53:46.376Z,4.00
2019-01-06T09:56:52.448Z,2.07
2019-01-06T09:59:38.748Z,2.33
2019-01-06T10:02:29.978Z,1.57
2019-01-06T10:05:36.258Z,2.40
2019-01-06T10:08:27.317Z,2.23
2019-01-06T10:11:10.547Z,1.30
2019-01-06T10:14:03.274Z,1.80
2019-01-06T10:17:00.708Z,1.53
2019-01-06T10:19:43.524Z,2.70
2019-01-06T10:22:29.953Z,2.50
2019-01-06T10:25:18.070Z,2.00
2019-01-06T10:28:09.435Z,3.00
2019-01-06T10:30:56.404Z,1.10
2019-01-06T10:33:43.112Z,2.00
2019-01-06T10:36:27.714Z,1.47
2019-01-06T10:39:14.340Z,1.13
2019-01-06T10:42:03.541Z,1.50
2019-01-06T10:44:51.668Z,2.47
2019-01-06T10:47:38.419Z,2.27
2019-01-06T10:50:36.082Z,1.60
2019-01-06T10:53:22.872Z,1.10
2019-01-06T10:56:17.456Z,1.37
2019-01-06T10:59:14.193Z,2.23
2019-01-06T11:02:02.597Z,2.10
2019-01-06T11:04:49.267Z,1.13
2019-01-06T11:07:43.339Z,0.90
2019-01-06T11:10:30.186Z,2.83
2019-01-06T11:13:18.730Z,1.97
2019-01-06T11:16:00.064Z,1.70
2019-01-06T11:18:48.069Z,1.30
2019-01-06T11:21:36.102Z,1.90
2019-01-06T11:24:27.468Z,1.73
2019-01-06T11:27:15.403Z,2.20
2019-01-06T11:30:02.296Z,0.90
2019-01-06T11:32:48.933Z,1.37
2019-01-06T11:35:46.266Z,1.67
2019-01-06T11:38:37.573Z,3.10
2019-01-06T11:41:24.053Z,1.40
2019-01-06T11:44:18.640Z,1.50
2019-01-06T11:47:08.569Z,1.57
2019-01-06T11:49:51.090Z,1.30
2019-01-06T11:52:39.040Z,1.87
2019-01-06T11:55:45.107Z,2.90
2019-01-06T11:58:47.758Z,1.53
2019-01-06T12:01:41.700Z,2.40
2019-01-06T12:04:28.164Z,1.33
2019-01-06T12:07:14.869Z,1.20
2019-01-06T12:10:21.210Z,2.83
2019-01-06T12:13:20.397Z,2.80
2019-01-06T12:16:06.794Z,1.57
2019-01-06T12:18:53.336Z,1.63
2019-01-06T12:21:47.532Z,1.10
2019-01-06T12:24:45.324Z,1.90
2019-01-06T12:27:33.227Z,1.37
2019-01-06T12:30:20.198Z,2.63
2019-01-06T12:33:11.251Z,2.33
2019-01-06T12:36:02.077Z,1.23
2019-01-06T12:38:48.535Z,1.40
2019-01-06T12:41:35.247Z,1.30
2019-01-06T12:44:32.346Z,1.57
2019-01-06T12:47:19.225Z,2.17
2019-01-06T12:50:07.440Z,2.10
2019-01-06T12:52:58.535Z,2.10
2019-01-06T12:55:45.403Z,1.63
2019-01-06T12:58:35.042Z,2.07
2019-01-06T13:01:35.627Z,1.63
2019-01-06T13:04:30.476Z,4.63
2019-01-06T13:07:18.682Z,1.63
2019-01-06T13:10:21.920Z,1.60
2019-01-06T13:13:08.602Z,2.00
2019-01-06T13:16:02.470Z,1.73
2019-01-06T13:18:47.987Z,3.00
2019-01-06T13:21:37.356Z,1.53
2019-01-06T13:24:43.743Z,1.60
2019-01-06T13:27:44.301Z,1.73
2019-01-06T13:30:41.160Z,2.50
2019-01-06T13:33:28.330Z,1.93
2019-01-06T13:36:19.129Z,2.00
2019-01-06T13:39:07.227Z,1.73
2019-01-06T13:42:10.398Z,3.70
2019-01-06T13:44:57.276Z,2.27
2019-01-06T13:47:57.316Z,1.17
2019-01-06T13:50:48.286Z,1.43
2019-01-06T13:53:38.469Z,3.00
2019-01-06T13:56:39.070Z,3.23
2019-01-06T13:59:42.216Z,1.33
2019-01-06T14:02:29.292Z,1.00
2019-01-06T14:05:15.958Z,1.57
2019-01-06T14:08:09.845Z,0.90
2019-01-06T14:10:56.188Z,1.10
2019-01-06T14:13:53.192Z,1.20
2019-01-06T14:16:41.549Z,1.17
2019-01-06T14:19:28.283Z,0.80
2019-01-06T14:22:28.423Z,1.17
2019-01-06T14:25:28.204Z,0.67
2019-01-06T14:28:18.138Z,0.80
2019-01-06T14:31:04.690Z,1.27
2019-01-06T14:33:58.731Z,1.20
2019-01-06T14:36:45.255Z,0.80
2019-01-06T14:39:32.195Z,1.20
2019-01-06T14:42:38.545Z,0.90
2019-01-06T14:45:24.894Z,0.70
2019-01-06T14:48:14.284Z,0.90
2019-01-06T14:51:01.564Z,1.60
2019-01-06T14:53:49.366Z,1.25
2019-01-06T14:56:34.951Z,1.27
2019-01-06T14:59:19.314Z,0.90
2019-01-06T15:02:10.559Z,1.93
2019-01-06T15:04:57.727Z,0.90
2019-01-06T15:07:48.837Z,2.80
2019-01-06T15:10:47.455Z,1.70
2019-01-06T15:13:34.719Z,1.43
2019-01-06T15:16:28.550Z,1.80
2019-01-06T15:19:15.525Z,1.00
2019-01-06T15:22:02.141Z,0.90
2019-01-06T15:24:57.328Z,1.60
2019-01-06T15:27:53.694Z,1.90
2019-01-06T15:30:41.679Z,1.62
2019-01-06T15:33:21.412Z,1.22
2019-01-06T15:36:12.515Z,1.27
2019-01-06T15:39:00.708Z,1.90
2019-01-06T15:41:47.407Z,1.43
2019-01-06T15:44:50.536Z,1.40
2019-01-06T15:47:33.218Z,1.40
2019-01-06T15:50:36.804Z,1.33
2019-01-06T15:53:31.355Z,1.40
2019-01-06T15:56:14.004Z,1.63
2019-01-06T15:59:08.475Z,3.00
2019-01-06T16:01:56.539Z,3.10
2019-01-06T16:04:43.916Z,1.37
2019-01-06T16:07:33.316Z,2.12
2019-01-06T16:10:20.489Z,2.42
2019-01-06T16:13:11.257Z,1.92
2019-01-06T16:16:00.204Z,3.03
2019-01-06T16:18:48.230Z,1.33
2019-01-06T16:21:51.570Z,1.77
2019-01-06T16:24:42.294Z,3.22
2019-01-06T16:27:48.286Z,3.37
2019-01-06T16:30:39.109Z,4.00
2019-01-06T16:33:42.459Z,3.02
2019-01-06T16:36:21.982Z,2.40
2019-01-06T16:39:12.790Z,5.53
2019-01-06T16:42:08.359Z,4.33
2019-01-06T16:44:58.993Z,2.60
2019-01-06T16:47:46.011Z,2.27
2019-01-06T16:50:37.871Z,2.93
2019-01-06T16:53:21.077Z,5.03
2019-01-06T16:56:15.852Z,2.80
2019-01-06T16:59:12.967Z,3.98
2019-01-06T17:02:07.066Z,4.57
2019-01-06T17:05:05.124Z,2.13
2019-01-06T17:07:52.184Z,3.27
2019-01-06T17:10:56.386Z,3.40
2019-01-06T17:13:51.079Z,4.87
2019-01-06T17:16:38.023Z,3.00
2019-01-06T17:19:24.494Z,2.40
2019-01-06T17:22:09.002Z,3.30
2019-01-06T17:25:09.127Z,3.87
2019-01-06T17:27:55.802Z,3.87
2019-01-06T17:30:44.852Z,3.12
2019-01-06T17:33:38.854Z,5.35
2019-01-06T17:36:25.746Z,3.20
2019-01-06T17:39:05.499Z,6.03
2019-01-06T17:41:50.919Z,2.90
2019-01-06T17:44:44.078Z,5.70
2019-01-06T17:47:30.606Z,6.50
2019-01-06T17:50:21.850Z,6.33
2019-01-06T17:53:08.798Z,4.90
2019-01-06T17:55:55.630Z,3.50
2019-01-06T17:58:42.565Z,7.13
2019-01-06T18:01:48.503Z,8.33
2019-01-06T18:04:34.979Z,4.05
2019-01-06T18:07:28.790Z,6.17
2019-01-06T18:10:21.833Z,7.43
2019-01-06T18:13:08.223Z,5.58
2019-01-06T18:16:11.688Z,5.10
2019-01-06T18:18:59.366Z,2.90
2019-01-06T18:21:52.855Z,5.73
2019-01-06T18:24:31.002Z,4.10
2019-01-06T18:27:17.694Z,5.70
2019-01-06T18:30:04.319Z,5.23
2019-01-06T18:32:51.154Z,13.10
2019-01-06T18:35:39.554Z,11.67
2019-01-06T18:38:26.269Z,4.57
2019-01-06T18:41:17.370Z,5.25
2019-01-06T18:44:05.515Z,5.60
2019-01-06T18:46:46.242Z,4.50
2019-01-06T18:49:46.224Z,6.90
2019-01-06T18:52:38.497Z,3.77
2019-01-06T18:55:29.970Z,5.43
2019-01-06T18:58:21.039Z,7.23
2019-01-06T19:01:15.286Z,2.10
2019-01-06T19:04:03.357Z,7.30
2019-01-06T19:06:43.386Z,7.23
2019-01-06T19:09:43.548Z,5.43
2019-01-06T19:12:24.106Z,8.48
2019-01-06T19:15:30.019Z,8.08
2019-01-06T19:18:33.239Z,6.83
2019-01-06T19:21:21.154Z,6.85
2019-01-06T19:24:18.349Z,6.60
2019-01-06T19:27:05.145Z,6.70
2019-01-06T19:29:51.638Z,7.60
2019-01-06T19:32:38.195Z,9.17
2019-01-06T19:35:24.681Z,9.20
2019-01-06T19:38:11.457Z,10.25
2019-01-06T19:40:58.522Z,7.87
2019-01-06T19:43:45.431Z,6.10
2019-01-06T19:46:42.752Z,6.90
2019-01-06T19:49:40.027Z,7.63
2019-01-06T19:52:23.788Z,11.47
2019-01-06T19:55:06.185Z,6.03
2019-01-06T19:58:00.283Z,8.90
2019-01-06T20:01:02.034Z,7.17
2019-01-06T20:03:55.853Z,8.45
2019-01-06T20:06:49.741Z,13.03
2019-01-06T20:09:44.151Z,17.57
2019-01-06T20:12:30.603Z,12.23
2019-01-06T20:15:22.795Z,19.77
2019-01-06T20:18:16.873Z,14.67
2019-01-06T20:21:10.982Z,13.43
2019-01-06T20:24:05.563Z,13.67
2019-01-06T20:26:54.858Z,16.77
2019-01-06T20:29:48.544Z,13.90
2019-01-06T20:32:35.698Z,15.32
2019-01-06T20:35:29.869Z,20.27
2019-01-06T20:38:16.984Z,14.63
2019-01-06T20:41:05.058Z,15.97
2019-01-06T20:44:05.724Z,13.45
2019-01-06T20:47:02.925Z,11.60
2019-01-06T20:49:49.733Z,11.50
2019-01-06T20:52:41.665Z,12.13
2019-01-06T20:55:26.909Z,11.57
2019-01-06T20:58:15.261Z,11.10
2019-01-06T21:01:03.335Z,12.83
2019-01-06T21:03:49.775Z,11.68
2019-01-06T21:06:50.175Z,16.32
2019-01-06T21:09:56.082Z,14.68
2019-01-06T21:12:51.681Z,15.97
2019-01-06T21:15:38.158Z,15.98
2019-01-06T21:18:28.035Z,14.18
2019-01-06T21:21:31.069Z,21.37
2019-01-06T21:24:28.232Z,12.15
2019-01-06T21:27:14.366Z,14.60
2019-01-06T21:30:01.349Z,15.53
2019-01-06T21:33:04.806Z,16.05
2019-01-06T21:35:51.298Z,15.57
2019-01-06T21:38:51.596Z,13.40
2019-01-06T21:41:35.473Z,11.75
2019-01-06T21:44:22.786Z,13.80
2019-01-06T21:47:16.488Z,16.27
2019-01-06T21:49:56.700Z,21.57
2019-01-06T21:52:56.973Z,7.83
2019-01-06T21:55:43.443Z,18.45
2019-01-06T21:58:30.264Z,16.82
2019-01-06T22:01:19.109Z,22.30
2019-01-06T22:04:07.211Z,34.08
2019-01-06T22:06:54.458Z,22.07
2019-01-06T22:09:54.471Z,18.27
2019-01-06T22:12:51.810Z,20.88
2019-01-06T22:15:53.707Z,19.92
2019-01-06T22:18:48.563Z,13.90
2019-01-06T22:21:39.427Z,19.45
2019-01-06T22:24:17.159Z,19.25
2019-01-06T22:27:01.755Z,16.63
2019-01-06T22:29:52.547Z,20.02
2019-01-06T22:32:39.258Z,22.00
2019-01-06T22:35:33.092Z,20.65
2019-01-06T22:38:19.686Z,19.60
2019-01-06T22:41:06.424Z,17.65
2019-01-06T22:44:03.556Z,21.23
2019-01-06T22:46:51.497Z,17.77
2019-01-06T22:49:37.488Z,20.37
2019-01-06T22:52:22.147Z,18.92
2019-01-06T22:55:22.496Z,14.78
2019-01-06T22:58:08.935Z,19.07
2019-01-06T23:00:58.559Z,16.25
2019-01-06T23:04:04.844Z,17.67
2019-01-06T23:06:51.604Z,23.40
2019-01-06T23:09:57.793Z,23.80
2019-01-06T23:12:44.049Z,23.87
2019-01-06T23:15:47.539Z,17.27
2019-01-06T23:18:41.435Z,23.67
2019-01-06T23:21:27.965Z,22.62
2019-01-06T23:24:22.451Z,23.20
2019-01-06T23:27:09.058Z,19.90
2019-01-06T23:30:06.156Z,23.60
2019-01-06T23:32:58.270Z,23.02
2019-01-06T23:35:41.473Z,23.20
2019-01-06T23:38:35.434Z,20.17
2019-01-06T23:41:26.601Z,20.87
2019-01-06T23:44:13.603Z,18.32
2019-01-06T23:46:56.770Z,18.55
2019-01-06T23:49:50.858Z,19.02
2019-01-06T23:52:54.137Z,20.48
2019-01-06T23:55:54.185Z,16.87
2019-01-06T23:58:41.116Z,20.25
